Terminal Aerodrome Forecast
Issued by NWS

Home | Current Version | Previous Version | Text Only | Print | Product List | Glossary On
Versions: 1 2 3 4 5 6 7 8 9 10 11 12 13 14 15 16 17 18
000
FTUS43 KDLH 142343
TAFHIB
TAF
KHIB 142343Z 1500/1524 19005KT P6SM SKC
     FM150900 30004KT P6SM OVC025
     FM151100 32006KT 5SM -SN OVC015
     FM151600 34013G19KT P6SM VCSH OVC020
     FM152100 34013G21KT P6SM BKN045=

USA.gov is the U.S. government's official web portal to all federal, state and local government web resources and services.